Time;durP1;ratioP1;P1;durP2;ratioP2;P2;SDS_P1;SDS_P2;PMS_P1;PMS_P2;Temp;Humidity;BMP_temperature;BMP_pressure;BME280_temperature;BME280_humidity;BME280_pressure;Samples;Min_cycle;Max_cycle;Signal;HPM_P1;HPM_P2
2022/05/03 00:01:04;;;;;;;12.50;10.30;;;18.30;52.90;;;;;;5014771;28;20461;-89
2022/05/03 00:03:39;;;;;;;12.00;10.70;;;18.30;53.10;;;;;;5022144;28;20473;-89
2022/05/03 00:06:15;;;;;;;11.27;8.97;;;18.20;53.20;;;;;;5015060;28;20468;-89
2022/05/03 00:08:45;;;;;;;11.83;9.93;;;18.20;53.00;;;;;;5038981;28;20450;-89
2022/05/03 00:11:19;;;;;;;9.33;8.43;;;18.30;52.90;;;;;;5041512;28;20453;-89
2022/05/03 00:13:55;;;;;;;11.03;9.83;;;18.30;52.90;;;;;;5011976;28;20465;-88
2022/05/03 00:16:23;;;;;;;10.53;9.43;;;18.30;52.80;;;;;;5022406;28;20460;-90
2022/05/03 00:18:50;;;;;;;15.50;9.50;;;18.30;52.70;;;;;;5024027;28;20441;-87
2022/05/03 00:21:18;;;;;;;10.80;9.70;;;18.30;52.90;;;;;;5015479;28;20467;-89
2022/05/03 00:23:47;;;;;;;11.00;9.77;;;18.20;52.80;;;;;;5021502;28;20908;-89
2022/05/03 00:26:14;;;;;;;13.70;10.40;;;18.20;52.90;;;;;;5019680;28;20457;-90
2022/05/03 00:28:43;;;;;;;12.33;8.83;;;18.20;52.80;;;;;;5023616;28;20454;-88
2022/05/03 00:31:11;;;;;;;10.13;8.87;;;18.20;52.60;;;;;;5014164;28;20477;-90
2022/05/03 00:33:38;;;;;;;9.53;8.63;;;18.10;52.60;;;;;;5017870;28;20454;-89
2022/05/03 00:36:06;;;;;;;10.17;9.10;;;18.10;53.10;;;;;;5034537;28;20482;-89
2022/05/03 00:38:34;;;;;;;10.57;9.00;;;18.10;53.00;;;;;;5036507;28;20453;-89
2022/05/03 00:41:06;;;;;;;11.10;9.03;;;18.00;52.70;;;;;;5038802;28;20983;-89
2022/05/03 00:43:40;;;;;;;10.57;9.23;;;18.00;53.10;;;;;;5036522;28;20434;-89
2022/05/03 00:46:12;;;;;;;9.57;8.57;;;18.00;53.10;;;;;;5018283;28;20484;-89
2022/05/03 00:48:53;;;;;;;11.03;9.33;;;18.00;52.50;;;;;;5024780;28;20447;-91
2022/05/03 00:51:29;;;;;;;9.90;8.90;;;18.00;52.60;;;;;;5036007;28;20471;-89
2022/05/03 00:54:05;;;;;;;10.27;9.20;;;18.00;52.80;;;;;;5018837;28;20533;-88
2022/05/03 00:56:52;;;;;;;10.63;8.13;;;18.00;52.60;;;;;;5022231;28;20553;-89
2022/05/03 00:59:32;;;;;;;11.57;9.10;;;18.00;52.50;;;;;;5024139;28;20459;-90
2022/05/03 01:02:03;;;;;;;9.97;8.93;;;18.00;52.60;;;;;;5031899;28;21007;-89
2022/05/03 01:04:36;;;;;;;9.40;8.50;;;18.00;52.40;;;;;;5031406;28;20446;-89
2022/05/03 01:07:18;;;;;;;11.93;9.40;;;18.00;52.20;;;;;;5016539;28;20505;-90
2022/05/03 01:09:55;;;;;;;9.63;8.63;;;17.90;53.00;;;;;;5020927;28;20458;-89
2022/05/03 01:12:27;;;;;;;11.03;9.37;;;17.90;52.30;;;;;;5006053;28;20444;-89
2022/05/03 01:15:19;;;;;;;10.37;9.37;;;17.90;52.30;;;;;;5007676;28;20456;-89
2022/05/03 01:17:52;;;;;;;11.10;9.37;;;17.80;52.30;;;;;;5022418;28;20454;-90
2022/05/03 01:20:30;;;;;;;11.20;8.73;;;17.70;52.60;;;;;;5014897;28;21144;-88
2022/05/03 01:23:29;;;;;;;9.87;8.87;;;17.50;52.60;;;;;;5025237;28;20465;-90
2022/05/03 01:26:21;;;;;;;10.10;9.10;;;17.50;52.40;;;;;;5034007;28;20465;-89
2022/05/03 01:29:02;;;;;;;16.97;9.77;;;17.50;52.60;;;;;;5006348;28;20435;-89
2022/05/03 01:31:30;;;;;;;13.13;9.80;;;17.50;52.40;;;;;;5027176;28;20442;-89
2022/05/03 01:34:01;;;;;;;10.67;9.13;;;17.40;52.40;;;;;;5022382;28;20453;-90
2022/05/03 01:36:35;;;;;;;12.00;8.83;;;17.50;52.40;;;;;;4991616;28;20487;-89
2022/05/03 01:39:12;;;;;;;11.47;9.70;;;17.40;52.60;;;;;;5019771;28;20993;-89
2022/05/03 01:41:47;;;;;;;10.57;9.47;;;17.40;52.50;;;;;;5019141;28;20556;-89
2022/05/03 01:44:28;;;;;;;10.70;9.70;;;17.30;52.20;;;;;;5004817;28;20449;-89
2022/05/03 01:47:07;;;;;;;10.60;8.87;;;17.30;52.00;;;;;;5024715;28;20470;-89
2022/05/03 01:52:44;;;;;;;9.30;8.30;;;17.20;51.60;;;;;;5019651;28;20469;-91
2022/05/03 01:55:33;;;;;;;10.93;8.33;;;17.10;51.70;;;;;;5011582;28;20442;-89
2022/05/03 01:58:17;;;;;;;8.67;7.77;;;17.20;52.20;;;;;;5006519;28;20454;-89
2022/05/03 02:00:55;;;;;;;10.90;9.57;;;17.10;52.20;;;;;;4996575;28;20466;-89
2022/05/03 02:03:29;;;;;;;13.10;9.00;;;17.00;52.30;;;;;;5012807;28;20445;-90
2022/05/03 02:06:03;;;;;;;12.80;9.03;;;17.00;52.40;;;;;;4987627;28;20483;-89
2022/05/03 02:09:03;;;;;;;10.83;8.70;;;17.00;52.40;;;;;;5032023;28;20455;-90
2022/05/03 02:11:45;;;;;;;11.10;8.47;;;17.00;52.30;;;;;;5015199;28;20536;-89
2022/05/03 02:17:30;;;;;;;13.33;10.00;;;17.00;52.30;;;;;;5013348;28;20489;-89
2022/05/03 02:23:35;;;;;;;12.60;10.30;;;16.90;52.00;;;;;;5016514;28;20438;-89
2022/05/03 02:26:34;;;;;;;10.60;8.90;;;16.80;52.10;;;;;;5031903;28;20481;-89
2022/05/03 02:29:05;;;;;;;11.30;8.80;;;16.80;52.40;;;;;;5025989;28;21257;-88
2022/05/03 02:31:41;;;;;;;13.33;10.30;;;16.80;52.40;;;;;;5002353;28;20441;-89
2022/05/03 02:34:19;;;;;;;12.70;9.83;;;16.80;52.30;;;;;;5007874;28;20450;-89
2022/05/03 02:36:55;;;;;;;10.27;9.17;;;16.70;52.30;;;;;;5018075;28;20480;-89
2022/05/03 02:39:28;;;;;;;10.87;9.77;;;16.70;52.30;;;;;;5007541;28;20542;-89
2022/05/03 02:41:59;;;;;;;14.97;9.50;;;16.60;52.30;;;;;;5002504;28;20469;-89
2022/05/03 02:44:29;;;;;;;10.57;9.47;;;16.60;52.20;;;;;;5033575;28;20457;-89
2022/05/03 02:47:04;;;;;;;18.63;9.97;;;16.60;52.20;;;;;;5022423;28;20474;-90
2022/05/03 02:49:42;;;;;;;12.17;9.53;;;16.60;52.20;;;;;;5031657;28;20450;-89
2022/05/03 02:52:15;;;;;;;14.07;10.30;;;16.60;52.20;;;;;;5010887;28;20448;-88
2022/05/03 02:54:53;;;;;;;10.13;9.03;;;16.50;52.10;;;;;;5023666;28;20447;-89
2022/05/03 02:57:31;;;;;;;11.30;9.33;;;16.50;52.20;;;;;;5026198;28;20568;-90
2022/05/03 03:03:17;;;;;;;11.13;9.03;;;16.40;52.50;;;;;;5029165;28;20561;-89
2022/05/03 03:05:50;;;;;;;10.67;9.47;;;16.30;52.80;;;;;;5013495;28;20461;-89
2022/05/03 03:08:20;;;;;;;11.50;9.37;;;16.30;53.00;;;;;;5025930;28;20858;-88
2022/05/03 03:10:52;;;;;;;11.70;9.40;;;16.30;52.80;;;;;;5010616;28;20459;-90
2022/05/03 03:13:30;;;;;;;10.87;9.43;;;16.30;53.00;;;;;;4987907;28;20454;-89
2022/05/03 03:15:57;;;;;;;12.80;9.90;;;16.30;53.00;;;;;;5005690;28;21225;-88
2022/05/03 03:18:25;;;;;;;10.63;9.53;;;16.30;53.10;;;;;;5012942;28;20451;-90
2022/05/03 03:20:58;;;;;;;11.13;9.03;;;16.30;53.00;;;;;;5018425;28;20470;-89
2022/05/03 03:23:28;;;;;;;10.30;9.10;;;16.20;52.90;;;;;;5022628;28;20784;-89
2022/05/03 03:25:55;;;;;;;11.90;10.13;;;16.20;53.00;;;;;;5037246;28;21023;-89
2022/05/03 03:28:24;;;;;;;11.40;9.40;;;16.20;53.00;;;;;;4987796;28;20988;-90
2022/05/03 03:30:52;;;;;;;11.43;8.77;;;16.20;52.90;;;;;;5015840;28;20458;-89
2022/05/03 03:33:20;;;;;;;10.20;9.07;;;16.20;52.80;;;;;;5022717;28;20446;-88
2022/05/03 03:35:48;;;;;;;9.90;8.90;;;16.20;52.80;;;;;;5037101;28;20474;-89
2022/05/03 03:38:17;;;;;;;11.80;9.40;;;16.20;53.10;;;;;;5021436;28;20537;-89
2022/05/03 03:40:46;;;;;;;13.93;9.73;;;16.20;53.30;;;;;;5007832;28;21101;-90
2022/05/03 03:43:15;;;;;;;11.17;9.90;;;16.10;53.30;;;;;;5019898;28;20835;-89
2022/05/03 03:45:42;;;;;;;11.50;9.27;;;16.10;53.10;;;;;;5018803;28;21265;-89
2022/05/03 03:48:10;;;;;;;10.93;9.33;;;16.10;53.70;;;;;;5032644;28;20492;-88
2022/05/03 03:50:39;;;;;;;11.77;9.83;;;16.10;52.50;;;;;;5036506;28;20453;-88
2022/05/03 03:53:06;;;;;;;12.30;9.70;;;16.10;52.70;;;;;;5036460;28;20448;-89
2022/05/03 03:55:36;;;;;;;12.40;10.60;;;16.10;53.10;;;;;;5022665;28;20497;-88
2022/05/03 03:58:03;;;;;;;11.73;10.03;;;16.10;53.10;;;;;;4999302;28;20818;-89
2022/05/03 04:00:31;;;;;;;13.80;10.17;;;16.10;53.10;;;;;;5007230;28;20454;-91
2022/05/03 04:02:59;;;;;;;10.53;9.40;;;16.00;53.10;;;;;;5008920;28;20474;-89
2022/05/03 04:05:28;;;;;;;11.27;9.47;;;15.90;53.20;;;;;;5013057;28;20469;-89
2022/05/03 04:07:55;;;;;;;12.73;9.97;;;15.90;53.40;;;;;;5032208;28;20786;-89
2022/05/03 04:10:22;;;;;;;11.20;8.97;;;15.90;53.60;;;;;;5006011;28;20463;-89
2022/05/03 04:12:50;;;;;;;9.17;8.27;;;15.90;53.60;;;;;;5021813;28;20455;-90
2022/05/03 04:15:17;;;;;;;10.77;9.07;;;15.90;53.60;;;;;;5024163;28;20470;-89
2022/05/03 04:17:44;;;;;;;11.70;9.17;;;15.90;53.50;;;;;;5034111;28;20465;-89
2022/05/03 04:20:12;;;;;;;10.13;9.10;;;15.90;53.60;;;;;;5036960;28;20454;-90
2022/05/03 04:22:39;;;;;;;10.60;9.50;;;15.90;53.60;;;;;;5001004;28;20478;-90
2022/05/03 04:25:07;;;;;;;11.10;9.40;;;15.90;53.40;;;;;;5016993;28;20824;-89
2022/05/03 04:27:34;;;;;;;14.17;9.77;;;15.90;53.20;;;;;;4997568;28;20473;-89
2022/05/03 04:30:03;;;;;;;11.63;10.27;;;15.90;52.90;;;;;;5013177;28;20445;-88
2022/05/03 04:32:31;;;;;;;11.00;9.80;;;15.90;53.00;;;;;;5014330;28;20446;-90
2022/05/03 04:34:59;;;;;;;10.97;9.13;;;15.90;53.10;;;;;;5007148;28;21101;-89
2022/05/03 04:37:27;;;;;;;11.00;9.60;;;15.90;53.10;;;;;;5002305;28;20474;-89
2022/05/03 04:39:54;;;;;;;11.93;9.83;;;15.90;52.80;;;;;;5003240;28;21345;-89
2022/05/03 04:42:21;;;;;;;10.70;9.60;;;15.90;53.30;;;;;;5027682;28;20662;-91
2022/05/03 04:44:48;;;;;;;14.80;10.57;;;15.80;53.50;;;;;;5008714;28;20572;-90
2022/05/03 04:47:17;;;;;;;11.87;9.57;;;15.80;53.40;;;;;;4999621;28;20485;-89
2022/05/03 04:49:44;;;;;;;10.80;9.30;;;15.80;54.10;;;;;;5019807;28;21018;-89
2022/05/03 04:52:11;;;;;;;12.80;9.80;;;15.80;53.40;;;;;;4981732;28;20452;-90
2022/05/03 04:54:39;;;;;;;11.30;10.00;;;15.80;53.90;;;;;;4993997;28;20450;-88
2022/05/03 04:57:07;;;;;;;10.00;9.10;;;15.70;53.90;;;;;;5018029;28;21071;-89
2022/05/03 04:59:34;;;;;;;11.30;10.10;;;15.70;54.10;;;;;;5034620;28;20974;-89
2022/05/03 05:02:01;;;;;;;11.83;9.33;;;15.70;54.30;;;;;;5036637;28;20484;-89
2022/05/03 05:04:30;;;;;;;12.70;10.20;;;15.80;54.50;;;;;;5019877;28;20458;-89
2022/05/03 05:06:57;;;;;;;11.50;9.70;;;15.80;54.40;;;;;;5036417;28;20477;-89
2022/05/03 05:09:24;;;;;;;10.97;9.30;;;15.80;55.20;;;;;;5017893;28;21181;-89
2022/05/03 05:11:51;;;;;;;11.50;9.47;;;15.90;54.70;;;;;;5000936;28;20975;-90
2022/05/03 05:14:20;;;;;;;11.93;10.73;;;15.80;54.60;;;;;;5023882;28;21044;-91
2022/05/03 05:16:48;;;;;;;14.30;11.67;;;15.80;54.70;;;;;;5012553;28;20480;-89
2022/05/03 05:19:15;;;;;;;12.67;9.80;;;15.80;54.90;;;;;;5017774;28;20450;-90
2022/05/03 05:21:43;;;;;;;14.10;12.60;;;15.90;55.20;;;;;;4991625;28;20474;-89
2022/05/03 05:24:11;;;;;;;12.23;10.37;;;15.80;55.40;;;;;;5035950;28;20461;-90
2022/05/03 05:26:39;;;;;;;12.60;11.00;;;15.70;55.90;;;;;;5017546;28;20502;-91
2022/05/03 05:29:06;;;;;;;14.67;11.63;;;15.70;56.40;;;;;;5004593;28;21087;-92
2022/05/03 05:31:34;;;;;;;12.20;10.90;;;15.70;56.40;;;;;;5002262;28;20938;-88
2022/05/03 05:34:01;;;;;;;10.93;9.30;;;15.80;56.30;;;;;;5020205;28;20454;-89
2022/05/03 05:36:28;;;;;;;12.87;10.37;;;15.70;56.50;;;;;;5030353;28;20466;-89
2022/05/03 05:38:56;;;;;;;12.90;11.13;;;15.70;56.50;;;;;;5017151;28;21218;-88
2022/05/03 05:41:23;;;;;;;11.83;10.63;;;15.90;56.00;;;;;;5015219;28;20469;-88
2022/05/03 05:43:50;;;;;;;12.10;10.60;;;15.90;55.50;;;;;;5016726;28;20587;-89
2022/05/03 05:46:17;;;;;;;14.50;11.83;;;15.90;55.90;;;;;;5018895;28;20480;-91
2022/05/03 05:48:45;;;;;;;15.83;11.33;;;16.10;56.10;;;;;;5001679;28;20446;-88
2022/05/03 05:51:13;;;;;;;14.50;10.70;;;16.20;56.10;;;;;;4989880;28;20461;-89
2022/05/03 05:53:39;;;;;;;11.30;10.10;;;16.30;56.00;;;;;;5005968;28;20454;-89
2022/05/03 05:56:09;;;;;;;13.27;10.50;;;16.20;56.10;;;;;;5020561;28;20462;-89
2022/05/03 05:58:37;;;;;;;13.90;11.40;;;16.20;55.80;;;;;;5011105;28;20449;-90
2022/05/03 06:01:04;;;;;;;13.57;10.67;;;16.10;56.10;;;;;;5007277;28;20443;-88
2022/05/03 06:03:32;;;;;;;13.80;11.47;;;16.20;56.30;;;;;;5036270;28;20995;-88
2022/05/03 06:06:00;;;;;;;11.83;10.73;;;16.20;56.20;;;;;;5018649;28;20497;-89
2022/05/03 06:08:27;;;;;;;16.00;11.20;;;16.20;56.00;;;;;;5016044;28;20444;-88
2022/05/03 06:10:58;;;;;;;13.13;11.57;;;16.40;55.90;;;;;;4988932;28;20480;-88
2022/05/03 06:13:26;;;;;;;15.10;11.30;;;16.40;55.80;;;;;;5019220;28;20437;-88
2022/05/03 06:15:54;;;;;;;13.87;10.63;;;16.20;56.20;;;;;;4998143;28;20470;-89
2022/05/03 06:18:22;;;;;;;12.37;10.57;;;16.30;56.20;;;;;;5023706;28;20476;-90
2022/05/03 06:20:50;;;;;;;18.80;11.10;;;16.40;55.90;;;;;;5016707;28;20462;-89
2022/05/03 06:23:17;;;;;;;16.83;11.20;;;16.30;56.20;;;;;;4996660;28;20462;-90
2022/05/03 06:25:44;;;;;;;15.13;11.50;;;16.40;55.90;;;;;;5022899;28;20469;-88
2022/05/03 06:28:11;;;;;;;12.07;10.83;;;16.40;56.10;;;;;;5030507;28;20519;-90
2022/05/03 06:30:40;;;;;;;13.40;11.80;;;16.50;55.90;;;;;;5026143;28;20468;-89
2022/05/03 06:33:07;;;;;;;14.53;12.00;;;16.60;56.20;;;;;;5005080;28;21385;-90
2022/05/03 06:35:34;;;;;;;17.70;12.07;;;16.60;56.40;;;;;;4996405;28;20471;-90
2022/05/03 06:38:00;;;;;;;11.60;10.40;;;16.80;56.30;;;;;;5038627;28;20453;-88
2022/05/03 06:40:28;;;;;;;14.93;11.30;;;17.00;55.70;;;;;;5022422;28;20576;-89
2022/05/03 06:42:55;;;;;;;13.80;10.57;;;17.00;54.60;;;;;;5039790;28;21438;-89
2022/05/03 06:45:23;;;;;;;11.70;10.20;;;16.90;54.90;;;;;;5008051;28;20555;-89
2022/05/03 06:47:51;;;;;;;19.73;11.63;;;17.00;54.90;;;;;;5023830;28;20444;-90
2022/05/03 06:50:18;;;;;;;12.93;11.53;;;17.00;54.90;;;;;;5010255;28;20528;-88
2022/05/03 06:52:45;;;;;;;19.53;11.27;;;17.20;54.50;;;;;;5023320;28;21187;-89
2022/05/03 06:55:12;;;;;;;17.93;10.73;;;17.20;54.50;;;;;;5003754;28;20456;-89
2022/05/03 06:57:40;;;;;;;14.00;10.77;;;17.20;54.70;;;;;;5019970;28;20454;-88
2022/05/03 07:00:08;;;;;;;16.80;11.33;;;17.40;54.50;;;;;;5009329;28;20442;-89
2022/05/03 07:02:35;;;;;;;13.20;10.20;;;17.50;53.80;;;;;;5001763;28;20469;-89
2022/05/03 07:05:05;;;;;;;13.80;12.27;;;17.60;53.30;;;;;;5037788;28;20529;-87
2022/05/03 07:07:33;;;;;;;15.40;11.97;;;17.70;53.00;;;;;;5036332;28;20453;-89
2022/05/03 07:10:00;;;;;;;16.53;10.43;;;17.70;53.20;;;;;;5010585;28;20458;-89
2022/05/03 07:12:27;;;;;;;12.67;10.70;;;17.80;53.60;;;;;;5007604;28;20467;-88
2022/05/03 07:14:59;;;;;;;17.13;10.93;;;17.90;53.20;;;;;;5022170;28;20457;-89
2022/05/03 07:22:58;;;;;;;14.93;9.83;;;18.00;52.90;;;;;;5011475;28;20469;-89
2022/05/03 07:25:26;;;;;;;13.40;9.37;;;18.00;52.70;;;;;;5006244;28;20446;-89
2022/05/03 07:27:53;;;;;;;11.90;10.20;;;17.70;52.30;;;;;;5020113;28;20553;-89
2022/05/03 07:30:20;;;;;;;11.20;9.60;;;17.60;52.60;;;;;;5011983;28;20440;-89
2022/05/03 07:32:47;;;;;;;19.57;10.37;;;17.60;52.60;;;;;;5027194;28;20457;-89
2022/05/03 07:35:16;;;;;;;14.00;10.70;;;17.80;52.30;;;;;;5031448;28;20452;-89
2022/05/03 07:37:43;;;;;;;12.60;9.70;;;18.10;52.60;;;;;;5019736;28;21021;-91
2022/05/03 07:40:11;;;;;;;14.67;10.30;;;18.50;51.80;;;;;;4991644;28;21151;-89
2022/05/03 07:42:38;;;;;;;12.03;9.43;;;18.50;52.00;;;;;;5021841;28;20470;-88
2022/05/03 07:45:09;;;;;;;12.60;9.27;;;18.70;51.50;;;;;;5035284;28;20481;-90
2022/05/03 07:47:37;;;;;;;12.80;9.93;;;18.80;51.20;;;;;;5038659;28;20449;-89
2022/05/03 07:50:06;;;;;;;10.77;8.60;;;19.10;50.90;;;;;;5018520;28;20457;-91
2022/05/03 07:52:36;;;;;;;17.33;9.47;;;19.20;49.90;;;;;;5011201;28;20449;-89
2022/05/03 07:55:03;;;;;;;13.93;7.97;;;19.20;49.80;;;;;;5037323;28;20449;-89
2022/05/03 07:57:30;;;;;;;9.20;8.30;;;19.30;50.20;;;;;;4995385;28;21000;-90
2022/05/03 07:59:57;;;;;;;12.00;9.10;;;19.40;49.40;;;;;;5038318;28;20450;-89
2022/05/03 08:02:25;;;;;;;9.97;8.40;;;19.60;49.20;;;;;;5017459;28;20515;-91
2022/05/03 08:04:53;;;;;;;9.57;8.40;;;19.90;49.10;;;;;;5020181;28;20430;-90
2022/05/03 08:07:21;;;;;;;9.10;7.70;;;20.10;48.60;;;;;;4995587;28;20902;-89
2022/05/03 08:09:49;;;;;;;9.60;8.33;;;20.30;48.30;;;;;;5008340;28;20442;-89
2022/05/03 08:12:16;;;;;;;8.87;7.90;;;20.30;47.80;;;;;;5003570;28;20469;-90
2022/05/03 08:14:43;;;;;;;10.13;7.93;;;20.50;47.80;;;;;;5017866;28;20438;-89
2022/05/03 08:17:11;;;;;;;10.73;8.50;;;20.70;47.70;;;;;;5021096;28;20507;-91
2022/05/03 08:19:38;;;;;;;9.73;8.80;;;20.90;47.70;;;;;;5005251;28;20450;-91
2022/05/03 08:22:05;;;;;;;9.27;8.47;;;20.80;47.10;;;;;;5004741;28;20460;-90
2022/05/03 08:24:32;;;;;;;10.80;8.63;;;20.80;47.50;;;;;;5008270;28;20457;-89
2022/05/03 08:27:01;;;;;;;10.50;7.80;;;20.90;47.90;;;;;;5033547;28;21029;-90
2022/05/03 08:29:29;;;;;;;7.67;6.90;;;21.00;47.80;;;;;;5041110;28;20446;-91
2022/05/03 08:31:57;;;;;;;13.37;7.20;;;21.20;46.50;;;;;;5038536;28;20977;-89
2022/05/03 08:34:24;;;;;;;9.77;7.77;;;21.20;46.30;;;;;;5025446;28;20463;-90
2022/05/03 08:42:18;;;;;;;10.33;7.23;;;21.50;46.80;;;;;;4996078;28;20473;-92
2022/05/03 08:44:45;;;;;;;7.33;6.50;;;21.50;46.40;;;;;;4981221;28;20463;-93
2022/05/03 08:47:12;;;;;;;6.80;6.10;;;21.70;46.70;;;;;;5020142;28;20481;-91
2022/05/03 08:49:47;;;;;;;8.53;6.80;;;21.40;44.00;;;;;;5015180;28;20524;-90
2022/05/03 08:52:17;;;;;;;7.10;6.20;;;21.40;44.80;;;;;;5017958;28;20437;-90
2022/05/03 08:54:46;;;;;;;6.30;5.43;;;21.20;45.40;;;;;;5016441;28;20501;-91
2022/05/03 08:57:13;;;;;;;6.10;5.50;;;21.50;44.40;;;;;;5026323;28;20466;-92
2022/05/03 08:59:44;;;;;;;6.63;5.63;;;21.30;43.70;;;;;;5018541;28;20459;-90
2022/05/03 09:02:12;;;;;;;6.30;5.10;;;21.30;44.20;;;;;;5010086;28;20661;-89
2022/05/03 09:04:39;;;;;;;5.17;4.77;;;21.40;43.50;;;;;;5039977;28;20473;-89
2022/05/03 09:07:20;;;;;;;6.00;5.40;;;21.50;43.70;;;;;;5019710;28;20501;-90
2022/05/03 09:09:48;;;;;;;5.83;4.90;;;21.70;43.90;;;;;;5018716;28;20512;-92
2022/05/03 09:12:26;;;;;;;5.73;5.10;;;21.90;44.60;;;;;;5004902;28;20438;-91
2022/05/03 09:14:57;;;;;;;6.57;5.37;;;22.00;44.00;;;;;;5001713;28;20457;-90
2022/05/03 09:17:39;;;;;;;5.90;5.40;;;22.10;43.00;;;;;;4999728;28;20569;-92
2022/05/03 09:25:51;;;;;;;9.03;5.60;;;22.50;43.90;;;;;;5001782;28;20479;-92
2022/05/03 09:28:21;;;;;;;6.87;5.50;;;22.70;43.20;;;;;;5016970;28;20477;-92
2022/05/03 09:30:51;;;;;;;6.50;5.77;;;22.80;42.60;;;;;;5004887;28;20444;-90
2022/05/03 09:33:20;;;;;;;6.00;5.40;;;22.90;43.10;;;;;;5019042;28;20812;-92
2022/05/03 09:35:48;;;;;;;5.60;5.10;;;22.90;41.80;;;;;;5038454;28;20474;-92
2022/05/03 09:38:15;;;;;;;7.87;6.40;;;22.80;42.30;;;;;;5004077;28;21288;-91
2022/05/03 09:40:43;;;;;;;6.60;5.90;;;23.10;42.90;;;;;;5035100;28;20446;-86
2022/05/03 09:43:11;;;;;;;8.10;6.77;;;23.40;41.50;;;;;;5005458;28;20490;-89
2022/05/03 09:45:39;;;;;;;7.00;6.20;;;23.60;40.70;;;;;;5001330;28;20546;-89
2022/05/03 09:48:08;;;;;;;7.60;5.63;;;23.80;42.20;;;;;;5012883;28;20731;-89
2022/05/03 09:50:41;;;;;;;6.97;6.17;;;24.30;41.70;;;;;;5031479;28;20482;-89
2022/05/03 09:53:11;;;;;;;6.53;5.93;;;24.50;41.30;;;;;;5016638;28;20795;-89
2022/05/03 09:55:40;;;;;;;6.33;5.60;;;24.30;39.50;;;;;;5014179;28;20849;-89
2022/05/03 09:58:10;;;;;;;6.07;5.47;;;24.20;40.00;;;;;;5036946;28;20470;-90
2022/05/03 10:00:39;;;;;;;7.30;6.40;;;24.40;40.90;;;;;;5020157;28;20529;-89
2022/05/03 10:03:09;;;;;;;6.00;5.40;;;24.70;40.50;;;;;;5033520;28;20509;-90
2022/05/03 10:05:37;;;;;;;6.87;6.13;;;24.90;38.00;;;;;;5034194;28;20527;-90
2022/05/03 10:08:05;;;;;;;5.27;4.83;;;24.80;40.00;;;;;;5004708;28;20900;-91
2022/05/03 10:10:32;;;;;;;7.40;6.20;;;25.10;38.00;;;;;;5035314;28;20443;-88
2022/05/03 10:13:00;;;;;;;7.67;5.20;;;25.10;36.80;;;;;;5004344;28;20454;-88
2022/05/03 10:21:12;;;;;;;5.50;4.87;;;25.80;39.10;;;;;;5012859;28;20540;-87
2022/05/03 10:23:39;;;;;;;6.20;4.70;;;25.90;36.60;;;;;;5013739;28;20462;-88
2022/05/03 10:26:09;;;;;;;6.00;4.97;;;26.30;37.70;;;;;;5011538;28;20473;-87
2022/05/03 10:29:08;;;;;;;5.80;5.33;;;26.70;36.80;;;;;;4989340;28;21020;-87
2022/05/03 10:32:00;;;;;;;6.63;6.03;;;27.10;35.80;;;;;;5013314;28;21104;-88
2022/05/03 10:34:56;;;;;;;5.40;5.00;;;26.90;33.50;;;;;;5031060;28;20442;-89
2022/05/03 10:38:04;;;;;;;5.60;5.20;;;26.70;35.20;;;;;;4998991;28;20756;-87
2022/05/03 10:40:34;;;;;;;6.17;5.57;;;26.70;35.90;;;;;;5016990;28;20458;-89
2022/05/03 10:43:07;;;;;;;7.87;5.47;;;26.30;35.10;;;;;;5004610;28;20455;-89
2022/05/03 10:45:48;;;;;;;6.57;5.50;;;26.10;37.30;;;;;;5005114;28;20478;-88
2022/05/03 10:48:27;;;;;;;6.77;5.07;;;26.50;35.80;;;;;;5023504;28;20700;-88
2022/05/03 10:50:57;;;;;;;5.73;5.23;;;26.90;35.80;;;;;;5014209;28;20461;-89
2022/05/03 10:53:29;;;;;;;5.53;5.00;;;27.40;33.80;;;;;;5033929;28;20437;-89
2022/05/03 10:56:18;;;;;;;6.13;5.00;;;27.70;34.40;;;;;;5008548;28;20469;-89
2022/05/03 10:59:14;;;;;;;5.87;5.27;;;28.10;32.20;;;;;;5034619;28;20446;-89
2022/05/03 11:02:06;;;;;;;5.17;4.73;;;28.00;32.10;;;;;;5009793;28;20442;-88
2022/05/03 11:04:35;;;;;;;10.50;5.13;;;27.90;30.60;;;;;;5029035;28;20469;-88
2022/05/03 11:07:05;;;;;;;5.60;5.10;;;27.80;31.10;;;;;;4995397;28;20479;-89
2022/05/03 11:09:33;;;;;;;5.63;5.13;;;27.60;32.00;;;;;;5022795;28;20442;-88
2022/05/03 11:12:03;;;;;;;6.07;5.50;;;27.70;33.00;;;;;;5012458;28;20457;-87
2022/05/03 11:14:50;;;;;;;6.80;5.10;;;27.90;31.70;;;;;;5023145;28;20977;-88
2022/05/03 11:17:19;;;;;;;8.20;5.80;;;28.00;31.40;;;;;;5039830;28;20488;-91
2022/05/03 11:19:56;;;;;;;6.03;5.43;;;28.30;31.00;;;;;;5020073;28;20548;-87
2022/05/03 11:22:26;;;;;;;7.70;5.63;;;27.90;30.70;;;;;;5024227;28;20491;-87
2022/05/03 11:24:55;;;;;;;6.13;5.57;;;28.10;29.80;;;;;;5012495;28;20462;-87
2022/05/03 11:27:23;;;;;;;7.57;5.40;;;28.10;30.10;;;;;;5007635;28;20473;-87
2022/05/03 11:29:55;;;;;;;6.40;5.80;;;28.40;30.10;;;;;;5004445;28;20483;-88
2022/05/03 11:32:37;;;;;;;7.30;5.70;;;28.50;29.90;;;;;;5041044;28;20446;-90
2022/05/03 11:35:07;;;;;;;5.73;5.23;;;28.60;29.50;;;;;;5016948;28;20457;-88
2022/05/03 11:37:36;;;;;;;6.70;6.00;;;28.70;28.50;;;;;;5011825;28;20897;-88
2022/05/03 11:40:08;;;;;;;6.30;5.70;;;28.50;28.30;;;;;;5014359;28;20443;-87
2022/05/03 11:42:40;;;;;;;5.80;5.30;;;28.80;29.00;;;;;;4994889;28;20443;-88
2022/05/03 11:45:09;;;;;;;7.07;5.30;;;29.10;29.90;;;;;;5034815;28;20978;-88
2022/05/03 11:47:39;;;;;;;5.73;5.03;;;28.60;28.50;;;;;;5018115;28;20482;-87
2022/05/03 11:50:07;;;;;;;5.77;5.17;;;28.10;29.00;;;;;;5034547;28;20446;-89
2022/05/03 11:58:07;;;;;;;5.60;5.10;;;29.30;27.10;;;;;;5031829;28;20469;-89
2022/05/03 12:00:49;;;;;;;6.47;5.80;;;29.20;28.10;;;;;;5016352;28;20797;-91
2022/05/03 12:03:16;;;;;;;5.93;5.47;;;29.00;27.40;;;;;;5023167;28;20445;-88
2022/05/03 12:06:00;;;;;;;6.57;5.30;;;28.80;28.20;;;;;;5041198;28;20482;-87
2022/05/03 12:08:29;;;;;;;5.80;5.30;;;29.00;27.10;;;;;;5036906;28;20475;-88
2022/05/03 12:10:57;;;;;;;6.87;5.03;;;28.90;27.00;;;;;;5025133;28;20453;-87
2022/05/03 12:13:30;;;;;;;5.30;4.90;;;29.10;29.20;;;;;;5027106;28;20535;-91
2022/05/03 12:16:17;;;;;;;6.23;5.67;;;29.20;27.80;;;;;;5018793;28;20474;-88
2022/05/03 12:18:48;;;;;;;6.20;5.60;;;29.30;28.10;;;;;;5024664;28;20975;-90
2022/05/03 12:21:16;;;;;;;6.20;5.13;;;29.10;27.50;;;;;;5013803;28;20460;-88
2022/05/03 12:23:47;;;;;;;6.10;5.53;;;28.20;28.20;;;;;;5005127;28;20493;-90
2022/05/03 12:26:20;;;;;;;6.97;5.87;;;27.70;27.90;;;;;;4990335;28;20474;-87
2022/05/03 12:28:49;;;;;;;9.10;6.43;;;27.70;29.60;;;;;;5038298;28;20543;-89
2022/05/03 12:31:17;;;;;;;6.37;5.67;;;27.70;28.90;;;;;;5021765;28;20472;-90
2022/05/03 12:33:48;;;;;;;7.97;6.13;;;27.30;29.50;;;;;;5002748;28;20985;-89
2022/05/03 12:36:34;;;;;;;6.27;5.67;;;27.20;30.40;;;;;;5019947;28;20489;-88
2022/05/03 12:39:14;;;;;;;6.13;5.63;;;27.10;29.50;;;;;;5033524;28;20449;-88
2022/05/03 12:41:42;;;;;;;6.17;5.40;;;27.20;29.80;;;;;;4995486;28;20446;-87
2022/05/03 12:44:10;;;;;;;6.40;5.67;;;27.60;29.90;;;;;;5016140;28;20855;-88
2022/05/03 12:46:39;;;;;;;7.37;5.00;;;28.00;28.30;;;;;;5019828;28;20966;-90
2022/05/03 12:49:11;;;;;;;7.80;6.77;;;27.90;28.60;;;;;;5020944;28;20526;-87
2022/05/03 12:51:40;;;;;;;5.80;5.30;;;27.70;28.30;;;;;;5002252;28;20845;-90
2022/05/03 12:54:08;;;;;;;6.20;5.70;;;28.10;28.40;;;;;;5021070;28;20928;-89
2022/05/03 12:59:22;;;;;;;5.63;5.13;;;28.30;27.80;;;;;;5015800;28;20590;-88
2022/05/03 13:01:50;;;;;;;6.20;5.63;;;28.30;28.60;;;;;;5027359;28;20989;-88
2022/05/03 13:04:17;;;;;;;6.80;4.80;;;28.20;27.10;;;;;;5018724;28;21051;-88
2022/05/03 13:06:45;;;;;;;5.80;5.13;;;28.10;28.30;;;;;;5023751;28;20461;-89
2022/05/03 13:09:12;;;;;;;6.20;5.60;;;28.20;27.00;;;;;;5035520;28;20929;-88
2022/05/03 13:11:41;;;;;;;7.13;6.43;;;28.30;28.40;;;;;;5024800;28;20453;-88
2022/05/03 13:14:09;;;;;;;5.90;5.30;;;28.40;26.10;;;;;;4995725;28;20446;-88
2022/05/03 13:16:37;;;;;;;7.63;5.17;;;28.80;27.00;;;;;;5020474;28;20565;-87
2022/05/03 13:19:04;;;;;;;5.37;4.97;;;28.80;26.80;;;;;;5016042;28;20450;-89
2022/05/03 13:21:34;;;;;;;5.57;5.00;;;28.30;27.10;;;;;;5011221;28;20470;-88
2022/05/03 13:24:01;;;;;;;5.93;5.33;;;28.10;27.60;;;;;;5004399;28;20450;-87
2022/05/03 13:26:28;;;;;;;7.03;5.10;;;28.00;27.30;;;;;;5018930;28;20474;-88
2022/05/03 13:28:57;;;;;;;5.90;4.97;;;27.70;27.50;;;;;;5003048;28;20830;-87
2022/05/03 13:31:24;;;;;;;5.70;5.10;;;27.40;27.80;;;;;;5025654;28;21106;-90
2022/05/03 13:33:51;;;;;;;5.00;4.60;;;27.20;28.40;;;;;;5036253;28;20828;-89
2022/05/03 13:41:47;;;;;;;5.30;4.80;;;27.40;27.20;;;;;;5023258;28;20510;-88
2022/05/03 13:44:15;;;;;;;5.50;5.03;;;27.40;27.50;;;;;;5040177;28;20792;-88
2022/05/03 13:46:42;;;;;;;6.40;5.80;;;27.30;28.20;;;;;;5003781;28;20471;-88